Time;durP1;ratioP1;P1;durP2;ratioP2;P2;SDS_P1;SDS_P2;PMS_P1;PMS_P2;Temp;Humidity;BMP_temperature;BMP_pressure;BME280_temperature;BME280_humidity;BME280_pressure;Samples;Min_cycle;Max_cycle;Signal;HPM_P1;HPM_P2
2023/08/23 00:00:11;;;;;;;;;;;17.50;99.90;;;;;;5097128;28;19928;-45
2023/08/23 00:02:37;;;;;;;;;;;17.50;99.90;;;;;;5097612;28;19928;-45
2023/08/23 00:05:03;;;;;;;;;;;17.50;99.90;;;;;;5096930;28;19931;-45
2023/08/23 00:07:28;;;;;;;;;;;17.50;99.90;;;;;;5078794;28;19931;-45
2023/08/23 00:09:54;;;;;;;;;;;17.50;99.90;;;;;;5079072;28;20252;-44
2023/08/23 00:12:19;;;;;;;;;;;17.50;99.90;;;;;;5096889;28;19928;-45
2023/08/23 00:14:45;;;;;;;;;;;17.50;99.90;;;;;;5078748;28;19972;-45
2023/08/23 00:17:10;;;;;;;;;;;17.50;99.90;;;;;;5079142;28;20291;-45
2023/08/23 00:19:36;;;;;;;;;;;17.40;99.90;;;;;;5096676;28;19985;-45
2023/08/23 00:22:04;;;;;;;;;;;17.40;99.90;;;;;;5096527;28;19924;-45
2023/08/23 00:24:30;;;;;;;;;;;17.40;99.90;;;;;;5096349;28;20389;-45
2023/08/23 00:26:56;;;;;;;;;;;17.40;99.90;;;;;;5096574;28;20015;-45
2023/08/23 00:29:22;;;;;;;;;;;17.40;99.90;;;;;;5096585;28;20272;-45
2023/08/23 00:31:47;;;;;;;;;;;17.40;99.90;;;;;;5096313;28;20380;-45
2023/08/23 00:34:13;;;;;;;;;;;17.40;99.90;;;;;;5096332;28;20037;-46
2023/08/23 00:36:38;;;;;;;;;;;17.40;99.90;;;;;;5078163;28;20334;-45
2023/08/23 00:39:04;;;;;;;;;;;17.50;99.90;;;;;;5095181;28;19968;-45
2023/08/23 00:41:29;;;;;;;;;;;17.50;99.90;;;;;;5096547;28;19974;-46
2023/08/23 00:43:55;;;;;;;;;;;17.40;99.90;;;;;;5096292;28;19925;-45
2023/08/23 00:46:21;;;;;;;;;;;17.40;99.90;;;;;;5096514;28;19924;-45
2023/08/23 00:48:47;;;;;;;;;;;17.40;99.90;;;;;;5078078;28;20466;-45
2023/08/23 00:51:14;;;;;;;;;;;17.30;99.90;;;;;;5096069;28;19931;-45
2023/08/23 00:53:40;;;;;;;;;;;17.20;99.90;;;;;;5096353;28;19947;-46
2023/08/23 00:56:05;;;;;;;;;;;17.10;99.90;;;;;;5078921;28;20006;-46
2023/08/23 00:58:32;;;;;;;;;;;17.10;99.90;;;;;;5095903;28;19932;-45
2023/08/23 01:00:57;;;;;;;;;;;17.00;99.90;;;;;;5078038;28;19932;-45
2023/08/23 01:03:23;;;;;;;;;;;17.00;99.90;;;;;;5095849;28;19924;-45
2023/08/23 01:06:00;;;;;;;;;;;17.00;99.90;;;;;;5095655;28;19930;-46
2023/08/23 01:08:42;;;;;;;;;;;17.00;99.90;;;;;;5096228;28;20368;-45
2023/08/23 01:11:09;;;;;;;;;;;17.00;99.90;;;;;;5078086;28;20003;-45
2023/08/23 01:13:48;;;;;;;;;;;17.00;99.90;;;;;;5095613;28;19924;-45
2023/08/23 01:16:14;;;;;;;;;;;17.00;99.90;;;;;;5095447;28;20023;-46
2023/08/23 01:18:40;;;;;;;;;;;17.00;99.90;;;;;;5095887;28;19936;-45
2023/08/23 01:21:06;;;;;;;;;;;17.10;99.90;;;;;;5095582;28;20299;-45
2023/08/23 01:23:33;;;;;;;;;;;17.10;99.90;;;;;;5095572;28;19924;-45
2023/08/23 01:25:58;;;;;;;;;;;17.20;99.90;;;;;;5077551;28;19930;-45
2023/08/23 01:28:24;;;;;;;;;;;17.20;99.90;;;;;;5095443;28;19924;-46
2023/08/23 01:30:50;;;;;;;;;;;17.20;99.90;;;;;;5095335;28;19989;-46
2023/08/23 01:33:39;;;;;;;;;;;17.20;99.90;;;;;;5095244;28;19924;-45
2023/08/23 01:36:14;;;;;;;;;;;17.20;99.90;;;;;;5077605;28;19924;-45
2023/08/23 01:38:41;;;;;;;;;;;17.10;99.90;;;;;;5095223;28;20379;-45
2023/08/23 01:41:07;;;;;;;;;;;17.20;99.90;;;;;;5095133;28;19931;-45
2023/08/23 01:43:32;;;;;;;;;;;17.10;99.90;;;;;;5060394;28;20279;-45
2023/08/23 01:45:58;;;;;;;;;;;17.20;99.90;;;;;;5095073;28;19928;-46
2023/08/23 01:48:23;;;;;;;;;;;17.20;99.90;;;;;;5077081;28;20313;-45
2023/08/23 01:50:50;;;;;;;;;;;17.10;99.90;;;;;;5094738;28;19928;-45
2023/08/23 01:53:16;;;;;;;;;;;17.00;99.90;;;;;;5077018;28;19924;-45
2023/08/23 01:55:41;;;;;;;;;;;16.90;99.90;;;;;;5076773;28;20268;-45
2023/08/23 01:58:07;;;;;;;;;;;16.80;99.90;;;;;;5094652;28;20286;-45
2023/08/23 02:00:32;;;;;;;;;;;16.80;99.90;;;;;;5076823;28;19928;-45
2023/08/23 02:02:58;;;;;;;;;;;16.70;99.90;;;;;;5094822;28;19924;-45
2023/08/23 02:05:23;;;;;;;;;;;16.70;99.90;;;;;;5094744;28;19930;-45
2023/08/23 02:07:49;;;;;;;;;;;16.70;99.90;;;;;;5094768;28;19932;-45
2023/08/23 02:10:14;;;;;;;;;;;16.70;99.90;;;;;;5076384;28;19974;-45
2023/08/23 02:12:40;;;;;;;;;;;16.70;99.90;;;;;;5094508;28;19977;-45
2023/08/23 02:15:06;;;;;;;;;;;16.60;99.90;;;;;;5094364;28;20287;-45
2023/08/23 02:17:32;;;;;;;;;;;16.60;99.90;;;;;;5094862;28;19924;-45
2023/08/23 02:19:57;;;;;;;;;;;16.60;99.90;;;;;;5094507;28;19946;-45
2023/08/23 02:22:23;;;;;;;;;;;16.50;99.90;;;;;;5076721;28;19924;-44
2023/08/23 02:24:48;;;;;;;;;;;16.50;99.90;;;;;;5094418;28;19931;-45
2023/08/23 02:27:14;;;;;;;;;;;16.50;99.90;;;;;;5094137;28;19969;-45
2023/08/23 02:29:40;;;;;;;;;;;16.50;99.90;;;;;;5094411;28;19928;-46
2023/08/23 02:32:05;;;;;;;;;;;16.50;99.90;;;;;;5059935;28;19924;-45
2023/08/23 02:34:31;;;;;;;;;;;16.40;99.90;;;;;;5094318;28;19986;-45
2023/08/23 02:36:56;;;;;;;;;;;16.40;99.90;;;;;;5094244;28;19931;-45
2023/08/23 02:39:22;;;;;;;;;;;16.30;99.90;;;;;;5094153;28;20310;-45
2023/08/23 02:41:47;;;;;;;;;;;16.30;99.90;;;;;;5094084;28;19924;-45
2023/08/23 02:44:13;;;;;;;;;;;16.30;99.90;;;;;;5094190;28;19975;-46
2023/08/23 02:46:38;;;;;;;;;;;16.30;99.90;;;;;;5076287;28;19928;-46
2023/08/23 02:49:04;;;;;;;;;;;16.30;99.90;;;;;;5094195;28;19924;-45
2023/08/23 02:51:29;;;;;;;;;;;16.30;99.90;;;;;;5094165;28;20019;-46
2023/08/23 02:53:55;;;;;;;;;;;16.30;99.90;;;;;;5094168;28;19932;-45
2023/08/23 02:56:20;;;;;;;;;;;16.30;99.90;;;;;;5076291;28;19946;-47
2023/08/23 02:58:46;;;;;;;;;;;16.30;99.90;;;;;;5093937;28;19924;-46
2023/08/23 03:01:12;;;;;;;;;;;16.30;99.90;;;;;;5094241;28;20399;-45
2023/08/23 03:03:37;;;;;;;;;;;16.20;99.90;;;;;;5080155;28;20367;-45
2023/08/23 03:06:03;;;;;;;;;;;16.20;99.90;;;;;;5080289;28;20044;-44
2023/08/23 03:08:28;;;;;;;;;;;16.20;99.90;;;;;;5098234;28;19931;-45
2023/08/23 03:11:03;;;;;;;;;;;16.20;99.90;;;;;;5080191;28;20385;-45
2023/08/23 03:13:28;;;;;;;;;;;16.20;99.90;;;;;;5080025;28;19935;-44
2023/08/23 03:15:54;;;;;;;;;;;16.10;99.90;;;;;;5098353;28;19924;-46
2023/08/23 03:18:20;;;;;;;;;;;16.10;99.90;;;;;;5098161;28;19930;-45
2023/08/23 03:20:46;;;;;;;;;;;16.10;99.90;;;;;;5097916;28;20022;-45
2023/08/23 03:23:11;;;;;;;;;;;16.10;99.90;;;;;;5098003;28;19924;-45
2023/08/23 03:25:37;;;;;;;;;;;16.10;99.90;;;;;;5097540;28;20390;-45
2023/08/23 03:28:02;;;;;;;;;;;16.10;99.90;;;;;;5079857;28;20375;-45
2023/08/23 03:30:28;;;;;;;;;;;16.10;99.90;;;;;;5097791;28;20359;-45
2023/08/23 03:32:53;;;;;;;;;;;16.10;99.90;;;;;;5098023;28;20397;-45
2023/08/23 03:35:19;;;;;;;;;;;16.10;99.90;;;;;;5080025;28;19975;-45
2023/08/23 03:37:45;;;;;;;;;;;16.10;99.90;;;;;;5097536;28;20454;-45
2023/08/23 03:40:10;;;;;;;;;;;16.10;99.90;;;;;;5097393;28;19979;-45
2023/08/23 03:42:36;;;;;;;;;;;16.10;99.90;;;;;;5097325;28;19928;-45
2023/08/23 03:45:01;;;;;;;;;;;16.10;99.90;;;;;;5097455;28;19924;-45
2023/08/23 03:47:27;;;;;;;;;;;16.10;99.90;;;;;;5097254;28;19924;-46
2023/08/23 03:49:52;;;;;;;;;;;16.20;99.90;;;;;;5097520;28;19969;-45
2023/08/23 03:52:18;;;;;;;;;;;16.20;99.90;;;;;;5097761;28;19963;-45
2023/08/23 03:54:43;;;;;;;;;;;16.20;99.90;;;;;;5097177;28;20371;-45
2023/08/23 03:57:09;;;;;;;;;;;16.30;99.90;;;;;;5096923;28;19928;-45
2023/08/23 03:59:35;;;;;;;;;;;16.30;99.90;;;;;;5079446;28;19967;-45
2023/08/23 04:02:00;;;;;;;;;;;16.40;99.90;;;;;;5097126;28;19924;-45
2023/08/23 04:04:26;;;;;;;;;;;16.40;99.90;;;;;;5097076;28;19930;-45
2023/08/23 04:06:51;;;;;;;;;;;16.40;99.90;;;;;;5096848;28;20061;-45
2023/08/23 04:09:17;;;;;;;;;;;16.50;99.90;;;;;;5078986;28;19977;-45
2023/08/23 04:11:42;;;;;;;;;;;16.50;99.90;;;;;;5078963;28;19931;-45
2023/08/23 04:14:08;;;;;;;;;;;16.50;99.90;;;;;;5096542;28;19924;-46
2023/08/23 04:16:34;;;;;;;;;;;16.50;99.90;;;;;;5096886;28;19924;-46
2023/08/23 04:18:59;;;;;;;;;;;16.50;99.90;;;;;;5096789;28;19928;-45
2023/08/23 04:21:25;;;;;;;;;;;16.50;99.90;;;;;;5096778;28;19972;-45
2023/08/23 04:23:51;;;;;;;;;;;16.50;99.90;;;;;;5096730;28;19977;-45
2023/08/23 04:26:17;;;;;;;;;;;16.50;99.90;;;;;;5096430;28;19954;-45
2023/08/23 04:28:42;;;;;;;;;;;16.50;99.90;;;;;;5078626;28;19924;-44
2023/08/23 04:31:08;;;;;;;;;;;16.60;99.90;;;;;;5078535;28;20399;-45
2023/08/23 04:33:35;;;;;;;;;;;16.60;99.90;;;;;;5078372;28;19974;-45
2023/08/23 04:36:02;;;;;;;;;;;16.50;99.90;;;;;;5096483;28;19967;-45
2023/08/23 04:38:27;;;;;;;;;;;16.50;99.90;;;;;;5096314;28;19924;-46
2023/08/23 04:41:03;;;;;;;;;;;16.50;99.90;;;;;;5096427;28;19932;-45
2023/08/23 04:43:28;;;;;;;;;;;16.50;99.90;;;;;;5096266;28;19924;-44
2023/08/23 04:45:57;;;;;;;;;;;16.50;99.90;;;;;;5096178;28;20291;-45
2023/08/23 04:48:23;;;;;;;;;;;16.50;99.90;;;;;;5096197;28;20397;-46
2023/08/23 04:50:55;;;;;;;;;;;16.50;99.90;;;;;;5096403;28;19928;-45
2023/08/23 04:53:20;;;;;;;;;;;16.50;99.90;;;;;;5096019;28;19924;-45
2023/08/23 04:55:47;;;;;;;;;;;16.50;99.90;;;;;;5078386;28;20272;-44
2023/08/23 04:58:13;;;;;;;;;;;16.50;99.90;;;;;;5096026;28;19971;-45
2023/08/23 05:00:38;;;;;;;;;;;16.50;99.90;;;;;;5061370;28;20024;-45
2023/08/23 05:03:04;;;;;;;;;;;16.50;99.90;;;;;;5095879;28;19925;-45
2023/08/23 05:05:29;;;;;;;;;;;16.50;99.90;;;;;;5095868;28;20065;-46
2023/08/23 05:07:55;;;;;;;;;;;16.60;99.90;;;;;;5095752;28;19946;-44
2023/08/23 05:10:21;;;;;;;;;;;16.60;99.90;;;;;;5095838;28;20021;-45
2023/08/23 05:12:46;;;;;;;;;;;16.60;99.90;;;;;;5095816;28;20398;-45
2023/08/23 05:15:12;;;;;;;;;;;16.60;99.90;;;;;;5095464;28;20462;-45
2023/08/23 05:17:37;;;;;;;;;;;16.60;99.90;;;;;;5095994;28;19924;-45
2023/08/23 05:20:04;;;;;;;;;;;16.60;99.90;;;;;;5095728;28;20432;-45
2023/08/23 05:22:29;;;;;;;;;;;16.60;99.90;;;;;;5095364;28;20022;-44
2023/08/23 05:24:55;;;;;;;;;;;16.70;99.90;;;;;;5094931;28;19990;-46
2023/08/23 05:27:20;;;;;;;;;;;16.70;99.90;;;;;;5077344;28;19993;-46
2023/08/23 05:29:46;;;;;;;;;;;16.70;99.90;;;;;;5095553;28;19924;-45
2023/08/23 05:32:11;;;;;;;;;;;16.80;99.90;;;;;;5095444;28;20421;-45
2023/08/23 05:34:39;;;;;;;;;;;16.80;99.90;;;;;;5077444;28;20345;-44
2023/08/23 05:37:04;;;;;;;;;;;16.80;99.90;;;;;;5095066;28;19925;-45
2023/08/23 05:39:30;;;;;;;;;;;16.80;99.90;;;;;;5094969;28;19947;-45
2023/08/23 05:41:55;;;;;;;;;;;16.90;99.90;;;;;;5077397;28;19924;-44
2023/08/23 05:44:21;;;;;;;;;;;16.90;99.90;;;;;;5095181;28;19931;-45
2023/08/23 05:46:46;;;;;;;;;;;16.90;99.90;;;;;;5094957;28;19924;-45
2023/08/23 05:49:12;;;;;;;;;;;16.90;99.90;;;;;;5076735;28;19974;-45
2023/08/23 05:51:38;;;;;;;;;;;16.90;99.90;;;;;;5077120;28;19931;-45
2023/08/23 05:54:03;;;;;;;;;;;16.90;99.90;;;;;;5094549;28;19924;-46
2023/08/23 05:56:29;;;;;;;;;;;17.00;99.90;;;;;;5094811;28;19927;-45
2023/08/23 05:58:54;;;;;;;;;;;17.00;99.90;;;;;;5094894;28;19928;-45
2023/08/23 06:01:20;;;;;;;;;;;17.00;99.90;;;;;;5076962;28;19982;-46
2023/08/23 06:03:46;;;;;;;;;;;17.10;99.90;;;;;;5094442;28;20371;-46
2023/08/23 06:06:13;;;;;;;;;;;17.20;99.90;;;;;;5094572;28;19977;-45
2023/08/23 06:08:38;;;;;;;;;;;17.30;99.90;;;;;;5076832;28;19931;-45
2023/08/23 06:11:04;;;;;;;;;;;17.60;99.90;;;;;;5095181;28;20011;-45
2023/08/23 06:13:29;;;;;;;;;;;17.80;99.90;;;;;;5094922;28;19928;-45
2023/08/23 06:15:55;;;;;;;;;;;17.80;99.90;;;;;;5094220;28;20036;-46
2023/08/23 06:18:21;;;;;;;;;;;17.90;99.90;;;;;;5076732;28;19973;-45
2023/08/23 06:20:49;;;;;;;;;;;17.90;99.90;;;;;;5094259;28;20379;-45
2023/08/23 06:23:14;;;;;;;;;;;18.00;99.90;;;;;;5094409;28;19924;-45
2023/08/23 06:25:40;;;;;;;;;;;18.00;99.90;;;;;;5094381;28;19931;-45
2023/08/23 06:28:07;;;;;;;;;;;18.10;99.90;;;;;;5094465;28;19931;-46
2023/08/23 06:30:34;;;;;;;;;;;18.10;99.90;;;;;;5094405;28;19928;-45
2023/08/23 06:33:00;;;;;;;;;;;18.10;99.90;;;;;;5094213;28;19928;-45
2023/08/23 06:35:26;;;;;;;;;;;18.10;99.90;;;;;;5094087;28;20450;-46
2023/08/23 06:37:51;;;;;;;;;;;18.20;99.90;;;;;;5075155;28;19928;-45
2023/08/23 06:40:17;;;;;;;;;;;18.20;99.90;;;;;;5076207;28;19924;-45
2023/08/23 06:42:42;;;;;;;;;;;18.30;99.90;;;;;;5094290;28;20382;-45
2023/08/23 06:45:09;;;;;;;;;;;18.30;99.90;;;;;;5076527;28;19975;-45
2023/08/23 06:47:37;;;;;;;;;;;18.40;99.90;;;;;;5094028;28;19928;-46
2023/08/23 06:50:03;;;;;;;;;;;18.50;99.90;;;;;;5094127;28;19931;-45
2023/08/23 06:52:29;;;;;;;;;;;18.60;99.90;;;;;;5094148;28;19924;-45
2023/08/23 06:54:55;;;;;;;;;;;18.60;99.90;;;;;;5094487;28;20413;-45
2023/08/23 06:57:28;;;;;;;;;;;18.50;99.90;;;;;;5094227;28;19924;-45
2023/08/23 06:59:54;;;;;;;;;;;18.50;99.90;;;;;;5076456;28;19924;-45
2023/08/23 07:02:19;;;;;;;;;;;18.50;99.90;;;;;;5094077;28;19953;-46
2023/08/23 07:04:45;;;;;;;;;;;18.50;99.90;;;;;;5093914;28;20290;-46
2023/08/23 07:07:10;;;;;;;;;;;18.50;99.90;;;;;;5093946;28;19947;-46
2023/08/23 07:09:36;;;;;;;;;;;18.50;99.90;;;;;;5076006;28;20014;-45
2023/08/23 07:12:02;;;;;;;;;;;18.50;99.90;;;;;;5093874;28;19924;-45
2023/08/23 07:14:27;;;;;;;;;;;18.60;99.90;;;;;;5093763;28;19924;-45
2023/08/23 07:16:53;;;;;;;;;;;18.60;99.90;;;;;;5075611;28;19924;-46
2023/08/23 07:19:18;;;;;;;;;;;18.60;99.90;;;;;;5075982;28;19931;-46
2023/08/23 07:21:44;;;;;;;;;;;18.60;99.90;;;;;;5093868;28;19971;-45
2023/08/23 07:24:10;;;;;;;;;;;18.60;99.90;;;;;;5093868;28;19935;-47
2023/08/23 07:26:36;;;;;;;;;;;18.70;99.90;;;;;;5075896;28;19978;-45
2023/08/23 07:29:01;;;;;;;;;;;18.70;99.90;;;;;;5076008;28;19925;-45
2023/08/23 07:31:27;;;;;;;;;;;18.70;99.90;;;;;;5094004;28;19983;-45
2023/08/23 07:33:52;;;;;;;;;;;18.80;99.90;;;;;;5075515;28;20329;-45
2023/08/23 07:36:18;;;;;;;;;;;18.80;99.90;;;;;;5093776;28;19924;-46
2023/08/23 07:38:43;;;;;;;;;;;18.90;99.90;;;;;;5093771;28;19977;-46
2023/08/23 07:41:09;;;;;;;;;;;19.10;99.90;;;;;;5093707;28;19928;-46
2023/08/23 07:43:35;;;;;;;;;;;19.20;99.90;;;;;;5093940;28;19924;-46
2023/08/23 07:46:02;;;;;;;;;;;19.30;99.90;;;;;;5093409;28;20373;-46
2023/08/23 07:48:28;;;;;;;;;;;19.30;99.90;;;;;;5077250;28;19924;-46
2023/08/23 07:51:00;;;;;;;;;;;19.30;99.90;;;;;;5097400;28;19936;-46
2023/08/23 07:53:26;;;;;;;;;;;19.30;99.90;;;;;;5097641;28;20344;-46
2023/08/23 07:55:51;;;;;;;;;;;19.30;99.90;;;;;;5097236;28;19952;-46
2023/08/23 07:58:17;;;;;;;;;;;19.40;99.90;;;;;;5097220;28;19924;-46
2023/08/23 08:00:42;;;;;;;;;;;19.40;99.90;;;;;;5097168;28;19969;-47
2023/08/23 08:03:09;;;;;;;;;;;19.50;99.90;;;;;;5096826;28;20315;-46
2023/08/23 08:05:34;;;;;;;;;;;19.60;99.90;;;;;;5078945;28;19931;-46
2023/08/23 08:08:00;;;;;;;;;;;19.60;99.90;;;;;;5097197;28;19924;-46
2023/08/23 08:10:26;;;;;;;;;;;19.70;99.90;;;;;;5096974;28;19966;-46
2023/08/23 08:12:52;;;;;;;;;;;19.70;99.90;;;;;;5096803;28;20306;-46
2023/08/23 08:15:17;;;;;;;;;;;19.80;99.90;;;;;;5096653;28;19931;-46
2023/08/23 08:17:43;;;;;;;;;;;19.80;99.90;;;;;;5096509;28;20268;-48
2023/08/23 08:20:09;;;;;;;;;;;19.90;99.90;;;;;;5078958;28;19962;-47
2023/08/23 08:22:35;;;;;;;;;;;19.90;99.90;;;;;;5096721;28;20015;-46
2023/08/23 08:25:01;;;;;;;;;;;19.90;99.90;;;;;;5096616;28;19971;-49
2023/08/23 08:27:26;;;;;;;;;;;19.90;99.90;;;;;;5096715;28;20367;-45
2023/08/23 08:29:52;;;;;;;;;;;19.90;99.90;;;;;;5078610;28;19924;-45
2023/08/23 08:32:17;;;;;;;;;;;20.00;99.90;;;;;;5096535;28;20018;-46
2023/08/23 08:34:43;;;;;;;;;;;19.90;99.90;;;;;;5096592;28;20371;-45
2023/08/23 08:37:08;;;;;;;;;;;20.00;99.90;;;;;;5096426;28;19977;-45
2023/08/23 08:39:34;;;;;;;;;;;20.10;99.90;;;;;;5096487;28;19924;-46
2023/08/23 08:42:00;;;;;;;;;;;20.10;99.90;;;;;;5096371;28;19974;-46
2023/08/23 08:44:26;;;;;;;;;;;20.20;99.90;;;;;;5096281;28;19978;-46
2023/08/23 08:46:52;;;;;;;;;;;20.20;99.90;;;;;;5096131;28;19924;-45
2023/08/23 08:49:17;;;;;;;;;;;20.20;99.90;;;;;;5096246;28;19993;-45
2023/08/23 08:51:45;;;;;;;;;;;20.30;99.90;;;;;;5096149;28;20018;-45
2023/08/23 08:54:11;;;;;;;;;;;20.30;99.90;;;;;;5096130;28;19924;-45
2023/08/23 08:56:37;;;;;;;;;;;20.30;99.90;;;;;;5096000;28;19931;-46
2023/08/23 08:59:03;;;;;;;;;;;20.40;99.90;;;;;;5095320;28;19924;-45
2023/08/23 09:01:31;;;;;;;;;;;20.40;99.90;;;;;;5095366;28;19931;-46
2023/08/23 09:03:57;;;;;;;;;;;20.50;99.90;;;;;;5078176;28;19964;-46
2023/08/23 09:06:23;;;;;;;;;;;20.50;99.90;;;;;;5096004;28;20032;-45
2023/08/23 09:08:49;;;;;;;;;;;20.50;99.90;;;;;;5095834;28;19931;-46
2023/08/23 09:11:15;;;;;;;;;;;20.60;99.90;;;;;;5095657;28;19924;-46
2023/08/23 09:13:40;;;;;;;;;;;20.60;99.90;;;;;;5095684;28;19930;-45
2023/08/23 09:16:06;;;;;;;;;;;20.50;99.90;;;;;;5095890;28;19924;-45
2023/08/23 09:18:34;;;;;;;;;;;20.60;99.90;;;;;;5095381;28;20279;-45
2023/08/23 09:21:00;;;;;;;;;;;20.60;99.90;;;;;;5095800;28;19978;-47
2023/08/23 09:23:32;;;;;;;;;;;20.70;99.90;;;;;;5077326;28;19924;-45
2023/08/23 09:25:58;;;;;;;;;;;20.70;99.90;;;;;;5095646;28;19946;-46
2023/08/23 09:28:28;;;;;;;;;;;20.80;99.90;;;;;;5095378;28;19924;-46
2023/08/23 09:30:54;;;;;;;;;;;20.80;99.90;;;;;;5095378;28;19931;-46
2023/08/23 09:33:20;;;;;;;;;;;20.90;99.90;;;;;;5095331;28;20064;-46
2023/08/23 09:35:49;;;;;;;;;;;20.90;99.90;;;;;;5077429;28;19997;-46
2023/08/23 09:38:20;;;;;;;;;;;20.90;99.90;;;;;;5095256;28;19929;-45
2023/08/23 09:40:49;;;;;;;;;;;20.90;99.90;;;;;;5077225;28;20383;-46
2023/08/23 09:43:16;;;;;;;;;;;20.90;99.90;;;;;;5095050;28;19924;-46
2023/08/23 09:45:41;;;;;;;;;;;21.00;99.90;;;;;;5095109;28;19924;-47
2023/08/23 09:48:09;;;;;;;;;;;21.10;99.90;;;;;;5094951;28;19931;-45
2023/08/23 09:50:35;;;;;;;;;;;21.20;99.90;;;;;;5095149;28;19930;-45
2023/08/23 09:53:03;;;;;;;;;;;21.30;99.90;;;;;;5095031;28;19928;-46
2023/08/23 09:55:30;;;;;;;;;;;21.30;99.90;;;;;;5095127;28;19982;-47
2023/08/23 09:57:56;;;;;;;;;;;21.30;99.90;;;;;;5094646;28;20434;-46
2023/08/23 10:00:22;;;;;;;;;;;21.40;99.90;;;;;;5094487;28;20367;-46
2023/08/23 10:02:48;;;;;;;;;;;21.40;99.90;;;;;;5095050;28;19924;-46
2023/08/23 10:05:13;;;;;;;;;;;21.50;99.90;;;;;;5094948;28;20438;-46
2023/08/23 10:07:42;;;;;;;;;;;21.50;99.90;;;;;;5094449;28;19934;-46
2023/08/23 10:10:08;;;;;;;;;;;21.60;99.90;;;;;;5094550;28;20340;-46
2023/08/23 10:12:35;;;;;;;;;;;21.60;99.90;;;;;;5094368;28;19924;-46
2023/08/23 10:15:02;;;;;;;;;;;21.70;99.90;;;;;;5094275;28;19924;-46
2023/08/23 10:17:29;;;;;;;;;;;21.80;99.90;;;;;;5094771;28;19924;-47
2023/08/23 10:19:55;;;;;;;;;;;22.00;99.90;;;;;;5094434;28;19924;-48
2023/08/23 10:22:21;;;;;;;;;;;22.10;99.90;;;;;;5094323;28;19977;-46
2023/08/23 10:24:47;;;;;;;;;;;22.20;99.90;;;;;;5094348;28;19932;-45
2023/08/23 10:27:13;;;;;;;;;;;22.40;99.90;;;;;;5094123;28;20062;-46
2023/08/23 10:29:39;;;;;;;;;;;22.50;99.90;;;;;;5094405;28;20009;-47
2023/08/23 10:32:07;;;;;;;;;;;22.60;99.90;;;;;;5094328;28;19969;-46
2023/08/23 10:34:34;;;;;;;;;;;22.70;99.90;;;;;;5094317;28;19924;-46
2023/08/23 10:37:00;;;;;;;;;;;22.80;99.90;;;;;;5076637;28;19927;-47
2023/08/23 10:39:26;;;;;;;;;;;22.90;99.90;;;;;;5076012;28;19950;-44
2023/08/23 10:41:55;;;;;;;;;;;22.90;99.90;;;;;;5093972;28;19931;-47
2023/08/23 10:44:21;;;;;;;;;;;23.10;99.90;;;;;;5093294;28;19932;-46
2023/08/23 10:46:49;;;;;;;;;;;23.20;99.90;;;;;;5094165;28;19924;-46
2023/08/23 10:49:16;;;;;;;;;;;23.30;99.90;;;;;;5094065;28;20287;-46
2023/08/23 10:51:42;;;;;;;;;;;23.40;99.90;;;;;;5094149;28;19928;-45
2023/08/23 10:54:14;;;;;;;;;;;23.60;99.90;;;;;;5093870;28;20283;-45
2023/08/23 10:56:40;;;;;;;;;;;23.70;99.90;;;;;;5094415;28;19924;-46
2023/08/23 10:59:08;;;;;;;;;;;23.80;99.90;;;;;;5094097;28;19931;-47
2023/08/23 11:01:34;;;;;;;;;;;24.00;99.90;;;;;;5094069;28;20435;-46
2023/08/23 11:04:03;;;;;;;;;;;24.10;99.90;;;;;;5094095;28;19974;-47
2023/08/23 11:06:30;;;;;;;;;;;24.20;99.90;;;;;;5094009;28;19924;-46
2023/08/23 11:08:56;;;;;;;;;;;24.20;99.90;;;;;;5093787;28;19932;-46
2023/08/23 11:11:21;;;;;;;;;;;24.30;99.90;;;;;;5093983;28;19928;-45
2023/08/23 11:13:47;;;;;;;;;;;24.30;99.90;;;;;;5059826;28;19978;-45
2023/08/23 11:16:13;;;;;;;;;;;24.20;99.90;;;;;;5093839;28;19977;-45
2023/08/23 11:18:39;;;;;;;;;;;24.00;99.90;;;;;;5093753;28;19965;-45
2023/08/23 11:21:05;;;;;;;;;;;23.90;99.90;;;;;;5093835;28;20369;-45
2023/08/23 11:23:31;;;;;;;;;;;23.80;99.90;;;;;;5094603;28;19923;-45
2023/08/23 11:25:56;;;;;;;;;;;24.00;99.90;;;;;;5097837;28;20424;-45
2023/08/23 11:28:22;;;;;;;;;;;24.10;99.90;;;;;;5097777;28;19931;-47
2023/08/23 11:30:48;;;;;;;;;;;24.30;99.90;;;;;;5097551;28;19975;-46
2023/08/23 11:33:14;;;;;;;;;;;24.50;99.90;;;;;;5097527;28;20288;-45
2023/08/23 11:35:39;;;;;;;;;;;24.60;99.90;;;;;;5097538;28;19947;-45
2023/08/23 11:38:05;;;;;;;;;;;24.80;99.90;;;;;;5097322;28;19924;-44
2023/08/23 11:40:34;;;;;;;;;;;24.80;99.90;;;;;;5097570;28;19924;-46
2023/08/23 11:43:00;;;;;;;;;;;24.70;99.90;;;;;;5097390;28;20384;-46
2023/08/23 11:45:26;;;;;;;;;;;24.70;99.90;;;;;;5097500;28;20315;-46
2023/08/23 11:47:53;;;;;;;;;;;24.80;99.90;;;;;;5097167;28;19924;-44
2023/08/23 11:50:19;;;;;;;;;;;24.80;99.90;;;;;;5097125;28;20490;-45
2023/08/23 11:52:46;;;;;;;;;;;24.70;99.90;;;;;;5079260;28;19924;-45
2023/08/23 11:55:12;;;;;;;;;;;24.60;99.90;;;;;;5097266;28;20002;-44
2023/08/23 11:57:37;;;;;;;;;;;24.60;99.90;;;;;;5097270;28;19967;-45
2023/08/23 12:00:03;;;;;;;;;;;24.60;99.90;;;;;;5062671;28;20411;-45
2023/08/23 12:02:29;;;;;;;;;;;24.60;99.90;;;;;;5097137;28;19957;-45
2023/08/23 12:04:54;;;;;;;;;;;24.70;99.90;;;;;;5096975;28;19967;-44
2023/08/23 12:07:20;;;;;;;;;;;24.90;99.90;;;;;;5096885;28;19928;-45
2023/08/23 12:09:47;;;;;;;;;;;25.10;99.90;;;;;;5097303;28;19930;-45
2023/08/23 12:12:12;;;;;;;;;;;25.30;99.90;;;;;;5097020;28;20345;-45
2023/08/23 12:14:38;;;;;;;;;;;25.50;99.90;;;;;;5097025;28;19932;-45
2023/08/23 12:17:04;;;;;;;;;;;25.60;99.90;;;;;;5097013;28;20287;-45
2023/08/23 12:19:35;;;;;;;;;;;25.80;99.90;;;;;;5096783;28;20024;-46
2023/08/23 12:22:01;;;;;;;;;;;25.90;99.90;;;;;;5096814;28;19963;-45
2023/08/23 12:24:28;;;;;;;;;;;26.00;99.90;;;;;;5079054;28;19923;-45
2023/08/23 12:26:54;;;;;;;;;;;26.20;99.90;;;;;;5096845;28;19925;-45
2023/08/23 12:29:19;;;;;;;;;;;26.20;99.90;;;;;;5096576;28;19928;-45
2023/08/23 12:31:45;;;;;;;;;;;26.20;99.90;;;;;;5096533;28;19924;-45
2023/08/23 12:34:10;;;;;;;;;;;26.30;99.90;;;;;;5096451;28;20015;-45
2023/08/23 12:36:36;;;;;;;;;;;26.40;99.90;;;;;;5096339;28;20375;-45
2023/08/23 12:39:01;;;;;;;;;;;26.40;99.90;;;;;;5096457;28;20283;-45
2023/08/23 12:41:27;;;;;;;;;;;26.50;99.90;;;;;;5096449;28;20002;-46
2023/08/23 12:43:53;;;;;;;;;;;26.60;99.90;;;;;;5078871;28;19924;-45
2023/08/23 12:46:18;;;;;;;;;;;26.60;99.90;;;;;;5078458;28;20272;-47
2023/08/23 12:48:44;;;;;;;;;;;26.60;99.90;;;;;;5096143;28;19932;-45
2023/08/23 12:51:10;;;;;;;;;;;26.70;99.90;;;;;;5096222;28;20428;-45
2023/08/23 12:53:35;;;;;;;;;;;26.70;99.90;;;;;;5078486;28;20443;-45
2023/08/23 12:56:01;;;;;;;;;;;26.60;99.90;;;;;;5096037;28;20390;-44
2023/08/23 12:58:26;;;;;;;;;;;26.60;99.90;;;;;;5096359;28;19924;-44
2023/08/23 13:00:52;;;;;;;;;;;26.50;99.90;;;;;;5096110;28;19924;-45
2023/08/23 13:03:17;;;;;;;;;;;26.20;99.90;;;;;;5096050;28;19931;-45
2023/08/23 13:05:43;;;;;;;;;;;26.10;99.90;;;;;;5095830;28;19924;-45
2023/08/23 13:08:08;;;;;;;;;;;25.90;99.90;;;;;;5095599;28;19924;-45
2023/08/23 13:10:34;;;;;;;;;;;25.80;99.90;;;;;;5077861;28;19924;-45
2023/08/23 13:13:00;;;;;;;;;;;25.70;99.90;;;;;;5095796;28;20014;-45
2023/08/23 13:15:25;;;;;;;;;;;25.70;99.90;;;;;;5095659;28;19928;-45
2023/08/23 13:17:55;;;;;;;;;;;25.70;99.90;;;;;;5095605;28;20023;-45
2023/08/23 13:20:21;;;;;;;;;;;25.60;99.90;;;;;;5095294;28;20387;-46
2023/08/23 13:22:46;;;;;;;;;;;25.70;99.90;;;;;;5095763;28;19979;-45
2023/08/23 13:25:12;;;;;;;;;;;25.70;99.90;;;;;;5095470;28;19924;-46
2023/08/23 13:27:38;;;;;;;;;;;25.80;99.90;;;;;;5077319;28;19924;-45
2023/08/23 13:30:03;;;;;;;;;;;25.90;99.90;;;;;;5077561;28;19973;-45
2023/08/23 13:32:29;;;;;;;;;;;26.00;99.90;;;;;;5095164;28;19959;-45
2023/08/23 13:34:54;;;;;;;;;;;26.00;99.90;;;;;;5095242;28;19931;-42
2023/08/23 13:37:20;;;;;;;;;;;25.80;99.90;;;;;;5095584;28;19969;-42
2023/08/23 13:39:46;;;;;;;;;;;25.50;99.90;;;;;;5095395;28;19924;-42
2023/08/23 13:42:11;;;;;;;;;;;25.30;99.90;;;;;;5095245;28;20442;-42
2023/08/23 13:44:37;;;;;;;;;;;25.30;99.90;;;;;;5095209;28;20260;-42
2023/08/23 13:47:02;;;;;;;;;;;25.30;99.90;;;;;;5094384;28;19924;-44
2023/08/23 13:49:28;;;;;;;;;;;25.30;99.90;;;;;;5094791;28;20272;-45
2023/08/23 13:51:53;;;;;;;;;;;25.20;99.90;;;;;;5095033;28;19975;-45
2023/08/23 13:54:19;;;;;;;;;;;25.20;99.90;;;;;;5095014;28;19989;-45
2023/08/23 13:56:44;;;;;;;;;;;25.20;99.90;;;;;;5094910;28;19930;-45
2023/08/23 13:59:10;;;;;;;;;;;25.10;99.90;;;;;;5094838;28;19932;-45
2023/08/23 14:01:36;;;;;;;;;;;25.20;99.90;;;;;;5094667;28;19924;-45
2023/08/23 14:04:03;;;;;;;;;;;25.10;99.90;;;;;;5094908;28;19924;-45
2023/08/23 14:06:28;;;;;;;;;;;24.90;99.90;;;;;;5094742;28;19927;-45
2023/08/23 14:08:54;;;;;;;;;;;24.60;99.90;;;;;;5094775;28;19924;-44